Time;durP1;ratioP1;P1;durP2;ratioP2;P2;SDS_P1;SDS_P2;PMS_P1;PMS_P2;Temp;Humidity;BMP_temperature;BMP_pressure;BME280_temperature;BME280_humidity;BME280_pressure;Samples;Min_cycle;Max_cycle;Signal;HPM_P1;HPM_P2
2023/07/22 00:02:09;;;;;;;3.50;2.50;;;17.00;96.00;;;17.84;96.21;98018.88;5059963;28;20835;-82
2023/07/22 00:04:38;;;;;;;3.50;2.53;;;17.00;96.10;;;17.76;96.75;98012.09;5062583;28;20464;-82
2023/07/22 00:07:10;;;;;;;5.23;2.33;;;17.00;96.20;;;17.76;96.60;98022.66;5062167;28;20439;-81
2023/07/22 00:09:41;;;;;;;6.23;2.20;;;17.00;96.10;;;17.75;96.94;98020.25;5063037;28;20460;-82
2023/07/22 00:12:13;;;;;;;3.37;2.20;;;17.00;96.10;;;17.81;96.62;98025.41;5064642;28;20460;-82
2023/07/22 00:14:44;;;;;;;5.60;2.30;;;17.00;96.20;;;17.70;97.17;98022.81;5062039;28;20534;-82
2023/07/22 00:17:14;;;;;;;3.37;2.10;;;16.90;96.20;;;17.65;97.92;98020.03;5064348;28;20474;-82
2023/07/22 00:19:46;;;;;;;3.50;2.30;;;16.90;96.30;;;17.64;98.10;98021.06;5065314;28;20457;-82
2023/07/22 00:22:16;;;;;;;2.30;1.80;;;16.90;96.30;;;17.58;98.60;98015.69;5069010;28;21011;-82
2023/07/22 00:24:46;;;;;;;4.83;3.00;;;16.90;96.40;;;17.55;99.21;98018.75;5067738;28;20493;-82
2023/07/22 00:27:19;;;;;;;5.80;2.40;;;16.80;96.50;;;17.56;98.93;98012.44;5071224;28;20483;-82
2023/07/22 00:29:49;;;;;;;4.10;2.50;;;16.80;96.40;;;17.57;99.45;98008.78;5069558;28;21116;-82
2023/07/22 00:32:19;;;;;;;5.57;2.13;;;16.80;96.60;;;17.58;99.53;98009.59;5068061;28;21047;-82
2023/07/22 00:34:50;;;;;;;6.37;2.10;;;16.80;96.70;;;17.53;99.45;98006.78;5069766;28;20464;-82
2023/07/22 00:37:21;;;;;;;6.53;2.30;;;16.80;96.50;;;17.41;100.00;97998.88;5066775;28;20524;-82
2023/07/22 00:39:51;;;;;;;4.00;2.50;;;16.80;96.20;;;17.26;100.00;98001.19;5069306;28;20456;-82
2023/07/22 00:42:23;;;;;;;3.80;1.87;;;16.90;95.90;;;17.16;100.00;97998.31;5063369;28;20452;-82
2023/07/22 00:44:54;;;;;;;3.33;2.30;;;16.80;95.90;;;17.12;100.00;97997.16;5068943;28;20922;-82
2023/07/22 00:47:23;;;;;;;4.27;2.43;;;16.70;96.00;;;17.16;100.00;98000.16;5069202;28;20673;-82
2023/07/22 00:49:53;;;;;;;2.50;2.00;;;16.60;96.50;;;17.18;100.00;97993.59;5066159;28;20456;-82
2023/07/22 00:52:22;;;;;;;4.20;2.43;;;16.60;96.40;;;17.19;100.00;97994.41;5068125;28;20479;-82
2023/07/22 00:54:53;;;;;;;3.40;2.10;;;16.50;96.50;;;17.29;100.00;97987.50;5069788;28;20897;-82
2023/07/22 00:57:24;;;;;;;3.60;2.13;;;16.50;96.70;;;17.28;100.00;97983.28;5069586;28;20524;-81
2023/07/22 00:59:55;;;;;;;4.27;2.60;;;16.50;96.40;;;17.27;100.00;97986.13;5067325;28;20958;-82
2023/07/22 01:02:25;;;;;;;3.70;2.30;;;16.50;96.50;;;17.19;100.00;97989.94;5066412;28;20499;-82
2023/07/22 01:04:55;;;;;;;3.53;2.30;;;16.50;96.60;;;17.28;100.00;97987.75;5069446;28;20489;-82
2023/07/22 01:07:25;;;;;;;6.40;2.80;;;16.50;96.70;;;17.25;100.00;97991.63;5069472;28;21003;-82
2023/07/22 01:09:59;;;;;;;3.80;2.50;;;16.50;96.60;;;17.19;100.00;97984.63;5068550;28;20483;-82
2023/07/22 01:12:29;;;;;;;3.70;2.50;;;16.50;96.60;;;17.20;100.00;97993.38;5070857;28;20555;-82
2023/07/22 01:15:00;;;;;;;2.87;2.30;;;16.50;96.70;;;17.19;100.00;97989.13;5071710;28;20499;-83
2023/07/22 01:17:29;;;;;;;3.77;2.63;;;16.50;96.60;;;17.14;100.00;97987.19;5069072;28;21095;-82
2023/07/22 01:19:58;;;;;;;3.50;2.30;;;16.40;96.80;;;17.14;100.00;97989.03;5070008;28;20464;-82
2023/07/22 01:22:30;;;;;;;5.37;2.33;;;16.40;97.00;;;17.17;100.00;97977.97;5070925;28;20457;-82
2023/07/22 01:25:01;;;;;;;5.10;2.20;;;16.40;96.90;;;17.08;100.00;97982.81;5070841;28;20462;-82
2023/07/22 01:27:31;;;;;;;3.50;2.13;;;16.30;96.90;;;17.01;100.00;97982.09;5066927;28;20468;-82
2023/07/22 01:30:03;;;;;;;2.50;2.07;;;16.30;96.80;;;17.12;100.00;97983.94;5066977;28;20463;-82
2023/07/22 01:32:32;;;;;;;6.30;2.40;;;16.30;97.00;;;17.11;100.00;97985.00;5062789;28;20469;-82
2023/07/22 01:35:02;;;;;;;4.43;2.10;;;16.30;97.00;;;17.01;100.00;97987.38;5065044;28;20495;-82
2023/07/22 01:37:32;;;;;;;2.70;2.30;;;16.20;96.90;;;16.96;100.00;97984.66;5065308;28;21285;-82
2023/07/22 01:40:11;;;;;;;3.47;2.20;;;16.20;97.00;;;16.80;100.00;97994.03;5068532;28;20469;-82
2023/07/22 01:42:41;;;;;;;2.93;2.20;;;16.10;97.00;;;16.71;100.00;97989.31;5070423;28;20456;-82
2023/07/22 01:45:12;;;;;;;3.43;2.13;;;16.00;97.20;;;16.71;100.00;97987.50;5065673;28;20460;-82
2023/07/22 01:47:42;;;;;;;4.67;2.43;;;16.00;97.40;;;16.66;100.00;97992.63;5070931;28;20542;-82
2023/07/22 01:50:13;;;;;;;4.70;2.33;;;16.00;97.20;;;16.64;100.00;97991.25;5065305;28;20460;-82
2023/07/22 01:52:43;;;;;;;4.20;2.53;;;15.90;97.20;;;16.62;100.00;97982.78;5066656;28;21098;-82
2023/07/22 01:55:14;;;;;;;3.33;2.23;;;15.90;97.20;;;16.54;100.00;97987.31;5067484;28;20544;-82
2023/07/22 01:57:44;;;;;;;4.33;2.33;;;15.80;97.50;;;16.50;100.00;97986.16;5069894;28;20487;-82
2023/07/22 02:00:15;;;;;;;3.50;2.10;;;15.80;97.40;;;16.45;100.00;97988.66;5067403;28;20464;-83
2023/07/22 02:02:46;;;;;;;2.90;2.00;;;15.70;97.40;;;16.33;100.00;97989.66;5065112;28;20986;-82
2023/07/22 02:05:16;;;;;;;6.37;2.57;;;15.70;97.30;;;16.31;100.00;97991.72;5069702;28;20474;-82
2023/07/22 02:07:46;;;;;;;5.50;2.67;;;15.70;97.40;;;16.30;100.00;97983.00;5065335;28;20545;-82
2023/07/22 02:10:18;;;;;;;23.73;2.10;;;15.60;97.70;;;16.26;100.00;97984.47;5068664;28;20464;-82
2023/07/22 02:12:48;;;;;;;5.13;2.50;;;15.70;97.70;;;16.29;100.00;97983.22;5070106;28;20469;-82
2023/07/22 02:15:21;;;;;;;3.17;2.33;;;15.50;97.80;;;16.20;100.00;97985.38;5070316;28;20486;-82
2023/07/22 02:17:51;;;;;;;3.20;2.33;;;15.50;98.00;;;16.16;100.00;97984.22;5064497;28;20488;-82
2023/07/22 02:20:22;;;;;;;5.90;2.37;;;15.40;97.70;;;16.13;100.00;97989.94;5068134;28;20514;-82
2023/07/22 02:22:51;;;;;;;5.27;2.53;;;15.40;98.10;;;15.99;100.00;97993.78;5067014;28;20468;-82
2023/07/22 02:25:23;;;;;;;5.63;2.07;;;15.30;97.80;;;15.95;100.00;97990.78;5065993;28;20495;-82
2023/07/22 02:27:53;;;;;;;2.37;1.90;;;15.30;97.90;;;15.83;100.00;97989.09;5068198;28;20471;-82
2023/07/22 02:30:23;;;;;;;3.73;2.07;;;15.20;97.90;;;15.83;100.00;97983.81;5067358;28;20464;-81
2023/07/22 02:32:52;;;;;;;4.10;2.10;;;15.20;98.30;;;15.80;100.00;97989.53;5065815;28;20468;-82
2023/07/22 02:35:21;;;;;;;5.00;2.20;;;15.10;98.20;;;15.64;100.00;97977.78;5063723;28;20455;-82
2023/07/22 02:37:52;;;;;;;2.80;2.20;;;15.10;98.40;;;15.71;100.00;97986.41;5066726;28;20487;-82
2023/07/22 02:40:23;;;;;;;6.60;2.50;;;15.10;98.30;;;15.65;100.00;97975.94;5066146;28;20459;-82
2023/07/22 02:42:54;;;;;;;4.17;2.43;;;15.00;98.60;;;15.65;100.00;97979.41;5065949;28;20986;-82
2023/07/22 02:45:23;;;;;;;2.77;2.40;;;15.00;98.60;;;15.62;100.00;97992.22;5066940;28;20459;-82
2023/07/22 02:47:53;;;;;;;3.60;2.10;;;15.00;98.20;;;15.60;100.00;97993.22;5064989;28;20474;-82
2023/07/22 02:50:24;;;;;;;3.17;2.37;;;14.90;98.50;;;15.67;100.00;97985.22;5067502;28;20464;-82
2023/07/22 02:52:54;;;;;;;2.57;2.10;;;14.90;98.70;;;15.65;100.00;97981.22;5066515;28;20522;-82
2023/07/22 02:55:25;;;;;;;3.60;2.27;;;14.90;98.60;;;15.57;100.00;97995.50;5071385;28;20547;-82
2023/07/22 02:57:54;;;;;;;3.90;2.50;;;14.90;98.80;;;15.57;100.00;97985.75;5066979;28;20483;-82
2023/07/22 03:00:24;;;;;;;2.93;2.40;;;14.80;98.90;;;15.50;100.00;97985.03;5068394;28;20468;-82
2023/07/22 03:03:00;;;;;;;47.30;21.20;;;14.80;98.60;;;15.44;100.00;97985.06;5070495;28;20470;-89
2023/07/22 03:05:30;;;;;;;3.47;2.30;;;14.80;98.80;;;15.38;100.00;97985.91;5069192;28;20495;-82
2023/07/22 03:08:00;;;;;;;2.87;2.40;;;14.80;98.70;;;15.34;100.00;97990.81;5066046;28;21567;-82
2023/07/22 03:10:33;;;;;;;3.67;2.10;;;14.80;98.70;;;15.39;100.00;97987.53;5067078;28;20537;-81
2023/07/22 03:13:03;;;;;;;5.60;2.50;;;14.70;98.90;;;15.32;100.00;97982.34;5061951;28;20973;-82
2023/07/22 03:15:33;;;;;;;3.60;2.33;;;14.70;98.80;;;15.26;100.00;97985.84;5062859;28;20590;-83
2023/07/22 03:18:02;;;;;;;10.27;2.40;;;14.70;98.90;;;15.14;100.00;97998.13;5063007;28;20460;-82
2023/07/22 03:20:32;;;;;;;5.30;3.00;;;14.60;99.00;;;15.12;100.00;97994.91;5067220;28;20555;-89
2023/07/22 03:23:03;;;;;;;2.20;2.00;;;14.50;99.00;;;15.09;100.00;98000.63;5066192;28;20470;-82
2023/07/22 03:25:36;;;;;;;2.57;2.13;;;14.50;99.10;;;15.11;100.00;97995.91;5065185;28;20456;-82
2023/07/22 03:28:08;;;;;;;3.87;2.30;;;14.50;99.30;;;15.08;100.00;98001.63;5060796;28;20459;-82
2023/07/22 03:30:39;;;;;;;4.07;2.03;;;14.50;99.30;;;15.03;100.00;97993.56;5059948;28;20466;-82
2023/07/22 03:33:10;;;;;;;11.53;6.00;;;14.50;99.00;;;15.07;100.00;97994.75;5070213;28;20968;-82
2023/07/22 03:35:41;;;;;;;5.80;2.07;;;14.50;99.30;;;14.99;100.00;98002.94;5063784;28;20465;-82
2023/07/22 03:38:12;;;;;;;3.43;2.20;;;14.40;99.30;;;14.92;100.00;97996.91;5066975;28;21244;-82
2023/07/22 03:40:43;;;;;;;3.27;2.50;;;14.30;99.10;;;14.93;100.00;98009.84;5064413;28;20484;-82
2023/07/22 03:43:14;;;;;;;8.87;2.63;;;14.30;99.30;;;14.92;100.00;98002.19;5067918;28;20460;-80
2023/07/22 03:45:43;;;;;;;3.07;2.20;;;14.30;99.40;;;14.93;100.00;98009.03;5068616;28;20460;-82
2023/07/22 03:48:14;;;;;;;2.70;2.00;;;14.20;99.50;;;15.02;100.00;98002.50;5064661;28;20467;-82
2023/07/22 03:50:45;;;;;;;3.10;2.53;;;14.20;99.60;;;14.94;100.00;98006.22;5065693;28;20509;-81
2023/07/22 03:53:16;;;;;;;3.40;2.50;;;14.20;99.70;;;14.86;100.00;98008.28;5065168;28;20456;-80
2023/07/22 03:55:47;;;;;;;3.87;2.30;;;14.20;99.30;;;14.82;100.00;98007.13;5063257;28;20452;-81
2023/07/22 03:58:18;;;;;;;5.03;2.40;;;14.20;99.60;;;14.75;100.00;98001.88;5068947;28;20460;-87
2023/07/22 04:00:50;;;;;;;4.37;2.80;;;14.10;99.50;;;14.78;100.00;98012.03;5066384;28;20942;-81
2023/07/22 04:03:20;;;;;;;3.33;2.10;;;14.10;99.80;;;14.75;100.00;98009.00;5067696;28;20493;-82
2023/07/22 04:05:56;;;;;;;3.83;2.63;;;14.10;99.60;;;14.85;100.00;98012.78;5070858;28;20465;-82
2023/07/22 04:08:27;;;;;;;4.10;2.30;;;14.00;99.80;;;14.94;100.00;98013.28;5064320;28;20955;-82
2023/07/22 04:10:59;;;;;;;4.40;2.80;;;14.00;99.70;;;14.86;100.00;98011.72;5067972;28;20478;-82
2023/07/22 04:13:29;;;;;;;3.07;2.37;;;14.10;99.70;;;14.79;100.00;98012.81;5063494;28;20469;-82
2023/07/22 04:15:59;;;;;;;3.30;2.43;;;14.00;99.70;;;14.61;100.00;98011.72;5066904;28;20479;-84
2023/07/22 04:18:34;;;;;;;4.40;2.50;;;14.00;99.80;;;14.70;100.00;98014.91;5063539;28;20470;-82
2023/07/22 04:21:05;;;;;;;3.27;2.50;;;13.90;99.90;;;14.75;100.00;98016.91;5072829;28;20459;-82
2023/07/22 04:23:34;;;;;;;3.57;2.17;;;13.90;99.90;;;14.72;100.00;98014.69;5065355;28;20487;-82
2023/07/22 04:26:07;;;;;;;3.90;2.33;;;13.90;99.80;;;14.68;100.00;98013.50;5067065;28;20514;-81
2023/07/22 04:28:38;;;;;;;2.93;2.40;;;14.00;99.90;;;14.66;100.00;98018.16;5066460;28;20532;-82
2023/07/22 04:31:09;;;;;;;3.37;2.40;;;14.00;99.80;;;14.60;100.00;98018.03;5065790;28;20544;-82
2023/07/22 04:33:38;;;;;;;5.10;2.40;;;14.00;99.90;;;14.59;100.00;98024.28;5063702;28;20487;-83
2023/07/22 04:36:08;;;;;;;5.03;2.70;;;13.90;99.90;;;14.61;100.00;98026.72;5069805;28;20474;-86
2023/07/22 04:38:38;;;;;;;2.30;2.00;;;13.90;99.90;;;14.70;100.00;98024.63;5067123;28;20451;-86
2023/07/22 04:41:10;;;;;;;3.23;2.33;;;13.90;99.90;;;14.81;100.00;98029.22;5070000;28;20470;-86
2023/07/22 04:43:41;;;;;;;4.47;2.70;;;14.00;99.90;;;14.78;100.00;98021.75;5073036;28;20459;-87
2023/07/22 04:46:10;;;;;;;6.63;2.87;;;14.00;99.90;;;14.82;100.00;98022.94;5071012;28;20475;-86
2023/07/22 04:48:40;;;;;;;3.17;2.50;;;13.90;99.90;;;14.82;100.00;98028.19;5071857;28;20473;-86
2023/07/22 04:51:10;;;;;;;4.37;2.63;;;13.90;99.90;;;14.90;100.00;98020.81;5066232;28;22504;-86
2023/07/22 04:53:40;;;;;;;8.20;3.10;;;13.90;99.90;;;14.92;100.00;98017.97;5070356;28;20941;-86
2023/07/22 04:56:12;;;;;;;4.77;2.80;;;14.00;99.90;;;14.86;100.00;98024.09;5070801;28;20543;-86
2023/07/22 04:58:41;;;;;;;4.43;3.03;;;14.10;99.90;;;14.92;100.00;98017.97;5068184;28;20496;-86
2023/07/22 05:01:13;;;;;;;3.40;2.70;;;14.10;99.90;;;14.89;100.00;98023.69;5071599;28;20486;-86
2023/07/22 05:03:44;;;;;;;10.00;2.70;;;14.10;99.80;;;14.92;100.00;98024.06;5068523;28;20463;-86
2023/07/22 05:06:15;;;;;;;9.67;2.70;;;14.20;99.90;;;14.99;100.00;98024.00;5064668;28;20525;-86
2023/07/22 05:08:46;;;;;;;6.90;2.90;;;14.20;99.90;;;15.04;100.00;98026.78;5068601;28;21105;-86
2023/07/22 05:11:18;;;;;;;4.40;3.03;;;14.30;99.90;;;15.05;100.00;98023.13;5073040;28;20496;-86
2023/07/22 05:13:48;;;;;;;5.43;3.20;;;14.30;99.80;;;15.12;100.00;98029.16;5067489;28;20858;-85
2023/07/22 05:16:21;;;;;;;6.37;3.00;;;14.40;99.80;;;15.10;100.00;98025.91;5068138;28;20480;-86
2023/07/22 05:18:50;;;;;;;3.90;3.13;;;14.40;99.60;;;15.09;100.00;98024.31;5070593;28;20506;-86
2023/07/22 05:21:20;;;;;;;4.53;3.37;;;14.40;99.50;;;15.11;100.00;98022.25;5068619;28;20467;-85
2023/07/22 05:23:51;;;;;;;3.77;2.97;;;14.40;99.60;;;15.10;100.00;98016.19;5068697;28;20516;-86
2023/07/22 05:26:23;;;;;;;4.23;2.57;;;14.40;99.70;;;15.16;100.00;98013.72;5067028;28;20467;-86
2023/07/22 05:28:53;;;;;;;4.47;3.30;;;14.40;99.70;;;15.22;100.00;98021.56;5069869;28;20464;-86
2023/07/22 05:31:22;;;;;;;3.73;2.90;;;14.40;99.70;;;15.21;100.00;98017.31;5070960;28;20538;-86
2023/07/22 05:33:50;;;;;;;3.97;3.53;;;14.50;99.60;;;15.22;100.00;98013.66;5068424;28;20465;-86
2023/07/22 05:36:20;;;;;;;4.63;2.70;;;14.50;99.60;;;15.24;100.00;98016.88;5070927;28;20468;-86
2023/07/22 05:38:49;;;;;;;5.53;3.23;;;14.50;99.50;;;15.20;100.00;98020.97;5072801;28;21144;-86
2023/07/22 05:41:19;;;;;;;9.80;3.30;;;14.50;99.70;;;15.14;100.00;98021.81;5073282;28;20989;-86
2023/07/22 05:43:50;;;;;;;4.37;3.33;;;14.50;99.70;;;15.24;100.00;98019.50;5070000;28;20459;-85
2023/07/22 05:46:20;;;;;;;4.27;2.90;;;14.40;99.70;;;15.23;100.00;98023.19;5072338;28;20820;-85
2023/07/22 05:48:51;;;;;;;3.77;2.80;;;14.50;99.80;;;15.25;100.00;98023.75;5068804;28;20514;-85
2023/07/22 05:51:22;;;;;;;4.30;3.30;;;14.50;99.90;;;15.25;100.00;98025.59;5070476;28;21100;-85
2023/07/22 05:53:53;;;;;;;6.53;3.70;;;14.50;99.80;;;15.32;100.00;98023.69;5071489;28;21023;-85
2023/07/22 05:56:24;;;;;;;3.90;3.50;;;14.50;99.70;;;15.35;100.00;98029.34;5071641;28;20879;-85
2023/07/22 05:58:56;;;;;;;4.13;3.10;;;14.60;99.70;;;15.41;100.00;98023.19;5069682;28;20870;-86
2023/07/22 06:01:26;;;;;;;4.70;3.37;;;14.60;99.60;;;15.47;100.00;98016.25;5069312;28;20990;-86
2023/07/22 06:03:56;;;;;;;9.27;3.70;;;14.70;99.70;;;15.51;100.00;98020.91;5065243;28;20464;-86
2023/07/22 06:06:26;;;;;;;7.43;4.37;;;14.70;99.60;;;15.54;100.00;98023.09;5067517;28;20543;-86
2023/07/22 06:08:57;;;;;;;5.17;3.27;;;14.70;99.50;;;15.53;100.00;98024.13;5069189;28;20473;-85
2023/07/22 06:11:28;;;;;;;4.77;3.43;;;14.90;99.20;;;15.54;100.00;98028.38;5067078;28;20499;-86
2023/07/22 06:14:00;;;;;;;7.10;3.80;;;14.90;99.10;;;15.58;100.00;98026.88;5068284;28;20495;-86
2023/07/22 06:16:29;;;;;;;6.20;3.57;;;15.00;99.10;;;15.62;100.00;98029.13;5069221;28;20837;-85
2023/07/22 06:18:59;;;;;;;7.00;3.20;;;15.00;99.10;;;15.66;100.00;98032.91;5070846;28;20504;-85
2023/07/22 06:21:29;;;;;;;8.70;3.97;;;15.00;99.00;;;15.71;100.00;98031.22;5068097;28;20509;-84
2023/07/22 06:23:58;;;;;;;6.00;3.30;;;15.10;99.10;;;15.75;100.00;98039.50;5071319;28;20469;-86
2023/07/22 06:26:27;;;;;;;4.00;3.00;;;15.10;98.90;;;15.80;100.00;98037.00;5072030;28;20464;-86
2023/07/22 06:29:00;;;;;;;6.07;3.13;;;15.20;99.00;;;15.84;100.00;98040.81;5072793;28;20494;-85
2023/07/22 06:31:30;;;;;;;4.97;3.17;;;15.30;99.00;;;15.91;100.00;98038.91;5068147;28;20493;-84
2023/07/22 06:34:00;;;;;;;4.60;2.90;;;15.30;99.00;;;15.94;100.00;98043.75;5065923;28;20627;-85
2023/07/22 06:36:30;;;;;;;5.47;3.47;;;15.30;98.90;;;15.97;100.00;98032.75;5070224;28;20526;-85
2023/07/22 06:39:00;;;;;;;4.30;2.90;;;15.30;99.00;;;16.02;100.00;98040.81;5067748;28;20463;-85
2023/07/22 06:41:30;;;;;;;5.20;3.23;;;15.40;98.90;;;16.08;100.00;98029.38;5067800;28;20534;-85
2023/07/22 06:44:02;;;;;;;5.27;2.63;;;15.40;99.00;;;16.11;100.00;98036.81;5067363;28;20495;-86
2023/07/22 06:46:33;;;;;;;4.63;2.97;;;15.50;98.90;;;16.21;100.00;98038.97;5068563;28;20456;-86
2023/07/22 06:49:03;;;;;;;5.20;3.30;;;15.50;99.10;;;16.24;100.00;98036.69;5068343;28;20459;-86
2023/07/22 06:51:33;;;;;;;4.83;3.30;;;15.60;99.00;;;16.30;100.00;98038.44;5068214;28;20510;-86
2023/07/22 06:54:03;;;;;;;7.60;3.53;;;15.60;99.10;;;16.35;100.00;98041.19;5067580;28;20471;-86
2023/07/22 06:56:33;;;;;;;5.70;2.90;;;15.70;99.00;;;16.41;100.00;98036.84;5068763;28;20471;-86
2023/07/22 06:59:05;;;;;;;5.20;2.80;;;15.80;99.10;;;16.47;100.00;98034.13;5068906;28;20909;-85
2023/07/22 07:01:34;;;;;;;4.60;2.70;;;15.80;99.00;;;16.56;100.00;98031.97;5068669;28;20475;-86
2023/07/22 07:04:04;;;;;;;4.67;3.20;;;15.90;99.00;;;16.61;100.00;98029.50;5068270;28;21037;-86
2023/07/22 07:06:33;;;;;;;5.60;3.53;;;15.90;99.00;;;16.69;100.00;98028.38;5069070;28;20477;-86
2023/07/22 07:09:04;;;;;;;4.37;3.27;;;15.90;99.10;;;16.75;100.00;98030.09;5067944;28;20516;-86
2023/07/22 07:11:34;;;;;;;4.30;3.33;;;16.00;99.00;;;16.79;100.00;98033.91;5068725;28;20492;-86
2023/07/22 07:14:05;;;;;;;5.17;3.47;;;16.10;98.90;;;16.84;100.00;98040.09;5070201;28;20484;-85
2023/07/22 07:16:36;;;;;;;4.10;2.73;;;16.20;98.80;;;16.90;100.00;98028.63;5069935;28;20467;-86
2023/07/22 07:19:06;;;;;;;6.17;3.10;;;16.20;98.90;;;16.99;100.00;98034.38;5069238;28;20463;-86
2023/07/22 07:21:37;;;;;;;5.17;3.20;;;16.30;99.00;;;17.05;100.00;98033.47;5067473;28;20460;-85
2023/07/22 07:24:08;;;;;;;3.57;2.73;;;16.30;98.80;;;17.11;100.00;98029.94;5068634;28;20550;-85
2023/07/22 07:26:39;;;;;;;9.00;2.73;;;16.40;98.80;;;17.15;100.00;98036.34;5069769;28;20966;-86
2023/07/22 07:29:10;;;;;;;5.00;3.07;;;16.50;98.80;;;17.22;100.00;98026.47;5066849;28;20460;-86
2023/07/22 07:31:41;;;;;;;6.10;3.17;;;16.50;98.80;;;17.29;100.00;98037.72;5067890;28;20832;-84
2023/07/22 07:34:11;;;;;;;5.73;3.00;;;16.50;98.90;;;17.38;100.00;98030.28;5064835;28;20467;-84
2023/07/22 07:36:41;;;;;;;4.30;2.43;;;16.60;99.20;;;17.44;100.00;98027.50;5069500;28;20449;-84
2023/07/22 07:39:11;;;;;;;5.40;3.10;;;16.60;99.40;;;17.52;100.00;98032.47;5068968;28;20497;-86
2023/07/22 07:41:41;;;;;;;4.93;2.53;;;16.70;99.20;;;17.57;100.00;98032.56;5065596;28;20526;-84
2023/07/22 07:44:13;;;;;;;6.17;2.77;;;16.70;98.70;;;17.64;100.00;98034.28;5065584;28;20456;-84
2023/07/22 07:46:43;;;;;;;4.00;2.50;;;16.80;98.90;;;17.70;100.00;98028.09;5064753;28;20456;-84
2023/07/22 07:49:14;;;;;;;5.30;3.10;;;16.90;98.80;;;17.78;100.00;98040.94;5065155;28;20487;-83
2023/07/22 07:51:44;;;;;;;6.10;2.93;;;17.00;98.80;;;17.82;100.00;98039.44;5065209;28;20502;-84
2023/07/22 07:54:15;;;;;;;7.63;3.20;;;17.10;98.70;;;17.89;100.00;98043.56;5066904;28;20954;-84
2023/07/22 07:56:45;;;;;;;7.70;3.30;;;17.10;98.50;;;17.98;100.00;98038.72;5061237;28;20548;-84
2023/07/22 07:59:17;;;;;;;5.23;3.63;;;17.20;98.80;;;18.04;100.00;98035.16;5067223;28;20867;-85
2023/07/22 08:01:47;;;;;;;5.90;3.10;;;17.30;98.50;;;18.11;100.00;98030.53;5069383;28;20901;-84
2023/07/22 08:04:18;;;;;;;6.43;3.07;;;17.40;98.40;;;18.18;100.00;98028.53;5066150;28;20826;-84
2023/07/22 08:06:47;;;;;;;2.63;2.30;;;17.40;98.30;;;18.23;100.00;98028.63;5064617;28;20863;-84
2023/07/22 08:09:19;;;;;;;3.30;2.80;;;17.60;98.10;;;18.31;100.00;98036.19;5067308;28;20590;-84
2023/07/22 08:11:50;;;;;;;6.63;3.77;;;17.60;98.10;;;18.37;100.00;98035.25;5068386;28;20523;-85
2023/07/22 08:14:22;;;;;;;6.27;4.40;;;17.70;98.10;;;18.44;100.00;98035.09;5065490;28;20494;-83
2023/07/22 08:16:52;;;;;;;12.50;4.07;;;17.80;98.00;;;18.52;100.00;98037.41;5067361;28;20471;-84
2023/07/22 08:19:24;;;;;;;5.60;3.40;;;17.90;97.90;;;18.62;100.00;98037.59;5068686;28;20463;-84
2023/07/22 08:21:54;;;;;;;5.33;3.20;;;17.90;97.80;;;18.69;100.00;98032.94;5065788;28;20460;-83
2023/07/22 08:24:23;;;;;;;7.47;3.30;;;18.00;97.30;;;18.77;100.00;98039.69;5065489;28;20457;-84
2023/07/22 08:26:55;;;;;;;7.83;3.40;;;18.00;97.10;;;18.84;100.00;98040.34;5065573;28;20457;-84
2023/07/22 08:29:27;;;;;;;5.00;2.97;;;18.10;97.30;;;18.93;100.00;98033.59;5063875;28;20497;-84
2023/07/22 08:31:56;;;;;;;11.00;3.40;;;18.20;97.30;;;18.97;99.33;98032.06;5064101;28;20495;-84
2023/07/22 08:34:25;;;;;;;6.30;4.10;;;18.30;97.00;;;19.01;98.76;98030.56;5068699;28;20466;-84
2023/07/22 08:36:56;;;;;;;6.80;3.37;;;18.30;96.80;;;19.05;98.08;98029.81;5066400;28;20473;-84
2023/07/22 08:39:26;;;;;;;5.07;2.90;;;18.40;96.80;;;19.09;96.93;98032.78;5065736;28;20463;-85
2023/07/22 08:41:58;;;;;;;8.43;3.63;;;18.40;96.50;;;19.08;93.02;98032.00;5067313;28;20547;-84
2023/07/22 08:44:35;;;;;;;9.80;3.53;;;18.40;95.60;;;19.07;90.92;98037.53;5071604;28;20910;-84
2023/07/22 08:47:12;;;;;;;12.27;4.00;;;18.30;95.30;;;19.09;90.69;98033.59;5070562;28;20468;-85
2023/07/22 08:49:46;;;;;;;8.03;4.37;;;18.30;95.30;;;19.15;90.37;98038.97;5075429;28;20467;-84
2023/07/22 08:52:16;;;;;;;13.70;4.27;;;18.50;95.40;;;19.18;89.73;98035.84;5068913;28;20514;-84
2023/07/22 08:54:50;;;;;;;8.57;4.23;;;18.50;95.30;;;19.25;90.12;98032.00;5069915;28;20452;-84
2023/07/22 08:57:23;;;;;;;7.27;4.07;;;18.50;95.50;;;19.30;89.18;98036.56;5072165;28;20464;-84
2023/07/22 08:59:56;;;;;;;12.67;4.00;;;18.50;95.20;;;19.33;88.42;98038.75;5075403;28;20456;-84
2023/07/22 09:02:27;;;;;;;5.27;3.70;;;18.50;95.10;;;19.36;87.78;98032.94;5072906;28;20490;-84
2023/07/22 09:04:58;;;;;;;8.07;3.50;;;18.70;95.00;;;19.43;87.14;98023.81;5075542;28;20463;-86
2023/07/22 09:07:29;;;;;;;6.97;3.73;;;18.70;94.60;;;19.50;86.87;98024.44;5073874;28;20968;-84
2023/07/22 09:10:02;;;;;;;5.23;3.40;;;18.80;94.80;;;19.59;86.56;98028.25;5072071;28;20529;-84
2023/07/22 09:12:31;;;;;;;5.80;3.67;;;18.90;94.90;;;19.69;85.13;98024.13;5067830;28;20488;-84
2023/07/22 09:15:04;;;;;;;7.97;3.80;;;19.00;94.30;;;19.73;83.07;98017.28;5068215;28;20491;-84
2023/07/22 09:17:36;;;;;;;6.47;3.67;;;19.00;93.70;;;19.79;82.35;98017.09;5069832;28;20537;-85
2023/07/22 09:20:09;;;;;;;5.63;3.20;;;19.10;93.80;;;19.90;81.63;98018.03;5068682;28;20550;-84
2023/07/22 09:22:40;;;;;;;8.00;3.70;;;19.10;93.70;;;19.96;78.03;98017.03;5067952;28;20660;-84
2023/07/22 09:25:18;;;;;;;5.30;3.37;;;19.20;92.60;;;20.05;76.90;98015.56;5069472;28;20534;-84
2023/07/22 09:27:48;;;;;;;4.37;3.20;;;19.30;92.40;;;20.12;75.87;98010.88;5069439;28;20466;-85
2023/07/22 09:30:28;;;;;;;5.70;3.70;;;19.40;92.10;;;20.20;73.54;98002.44;5070820;28;20585;-85
2023/07/22 09:33:00;;;;;;;8.20;3.30;;;19.50;91.60;;;20.30;73.40;98005.25;5071888;28;20498;-84
2023/07/22 09:35:31;;;;;;;10.50;3.27;;;19.50;91.80;;;20.37;71.09;97997.91;5069501;28;20460;-84
2023/07/22 09:38:02;;;;;;;4.13;2.97;;;19.70;91.20;;;20.45;72.40;97999.28;5069404;28;20528;-84
2023/07/22 09:40:34;;;;;;;11.43;4.17;;;19.70;91.50;;;20.50;74.21;98010.78;5070812;28;20471;-84
2023/07/22 09:43:05;;;;;;;8.73;4.30;;;19.70;92.20;;;20.57;74.43;98003.41;5067555;28;20610;-84
2023/07/22 09:45:37;;;;;;;4.50;3.10;;;19.90;92.10;;;20.56;73.66;97993.81;5067550;28;20464;-84
2023/07/22 09:48:10;;;;;;;6.20;3.60;;;19.80;91.90;;;20.61;74.12;97986.94;5068939;28;20478;-84
2023/07/22 09:50:41;;;;;;;7.47;3.37;;;19.80;92.10;;;20.64;74.45;97989.09;5070507;28;20475;-85
2023/07/22 09:53:17;;;;;;;6.67;3.50;;;19.80;92.20;;;20.57;74.02;97987.44;5067535;28;20500;-84
2023/07/22 09:55:47;;;;;;;11.33;3.37;;;19.70;91.90;;;20.67;73.34;97999.22;5066653;28;21027;-84
2023/07/22 09:58:18;;;;;;;7.33;3.90;;;19.90;91.90;;;20.68;71.21;97985.69;5068829;28;20460;-84
2023/07/22 10:00:51;;;;;;;4.60;3.20;;;19.90;91.30;;;20.77;70.48;97986.81;5067247;28;20829;-84
2023/07/22 10:03:23;;;;;;;6.87;3.63;;;20.10;91.00;;;20.82;69.91;97988.72;5063033;28;20456;-84
2023/07/22 10:05:53;;;;;;;6.17;3.40;;;20.10;91.00;;;20.92;68.41;97983.47;5068548;28;20449;-84
2023/07/22 10:08:25;;;;;;;8.57;3.13;;;20.30;90.70;;;20.99;67.81;97995.50;5068047;28;20942;-83
2023/07/22 10:10:59;;;;;;;5.80;3.03;;;20.40;90.20;;;21.08;66.51;97987.84;5070523;28;20464;-84
2023/07/22 10:13:29;;;;;;;4.60;3.07;;;20.50;90.20;;;21.17;66.63;97985.56;5068489;28;20954;-84
2023/07/22 10:16:02;;;;;;;4.50;3.50;;;20.50;90.20;;;21.24;65.87;97986.13;5066692;28;20576;-84
2023/07/22 10:18:34;;;;;;;3.57;2.70;;;20.60;89.80;;;21.29;64.35;97989.63;5069389;28;20516;-85
2023/07/22 10:21:05;;;;;;;6.13;2.77;;;20.50;88.30;;;21.28;60.89;97993.31;5068448;28;20467;-85
2023/07/22 10:23:38;;;;;;;10.43;3.10;;;20.60;86.80;;;21.29;61.14;97984.28;5070557;28;20462;-85
2023/07/22 10:26:07;;;;;;;5.00;2.80;;;20.60;87.60;;;21.30;61.25;97982.44;5068297;28;20461;-84
2023/07/22 10:28:40;;;;;;;9.50;2.80;;;20.70;87.30;;;21.27;61.07;97986.41;5067692;28;20456;-84